Terminal Aerodrome Forecast
Issued by NWS

Home | Current Version | Previous Version | Text Only | Print | Product List | Glossary On
Versions: 1 2 3 4 5 6 7 8 9 10 11 12 13 14 15
000
FTUS43 KPAH 251120
TAFOWB
TAF
KOWB 251120Z 2512/2612 VRB03KT P6SM FEW250
     FM251500 20005KT P6SM FEW250
     FM252200 20004KT P6SM SCT080 BKN110 PROB30 2610/2612 4SM -TSRA
      BKN070CB=

USA.gov is the U.S. government's official web portal to all federal, state and local government web resources and services.